ADDS METAR Data INFO
IDs: Format: Raw Decoded Include TAF

Data at: 0032 UTC 23 Oct 2017

KBFL 222354Z 28003KT 10SM CLR 23/08 A3025 RMK AO2 SLP240 T02330078 10239 20172 56013
KBFL 222254Z 23005KT 10SM CLR 23/08 A3025 RMK AO2 SLP241 T02280078
KBFL 222154Z 28007KT 10SM CLR 23/08 A3027 RMK AO2 SLP245 T02280078
KBFL 222054Z 28007KT 10SM CLR 22/07 A3029 RMK AO2 SLP252 T02220072 58013
KBFL 221954Z 28006KT 10SM CLR 21/07 A3031 RMK AO2 SLP260 T02110072
KBFL 221854Z 24005KT 10SM CLR 19/07 A3033 RMK AO2 SLP267 T01940067
KBFL 221754Z 00000KT 10SM CLR 17/06 A3033 RMK AO2 SLP266 T01720061 10178 20100 58005
KBFL 221654Z 00000KT 10SM CLR 16/07 A3034 RMK AO2 SLP270 T01560067
KBFL 221554Z 14006KT 10SM CLR 13/06 A3034 RMK AO2 SLP270 T01330056
KBFL 221454Z 11005KT 10SM CLR 12/06 A3034 RMK AO2 SLP272 T01170056 51013
KBFL 221354Z 12003KT 10SM CLR 11/05 A3033 RMK AO2 SLP267 T01110050
KBFL 221254Z 00000KT 10SM CLR 10/04 A3032 RMK AO2 SLP264 T01000044
KBFL 221154Z AUTO 00000KT 10SM CLR 11/04 A3030 RMK AO2 SLP258 T01060039 10150 20094 53002
KBFL 221054Z AUTO 00000KT 10SM CLR 11/04 A3029 RMK AO2 SLP253 T01110044
KBFL 220954Z AUTO 08004KT 10SM CLR 14/06 A3029 RMK AO2 SLP254 T01390056
KBFL 220854Z AUTO 08005KT 10SM CLR 14/06 A3029 RMK AO2 SLP256 T01390056 52000
KBFL 220754Z AUTO 08005KT 10SM CLR 14/06 A3029 RMK AO2 SLP255 T01440061 402110089
KBFL 220654Z AUTO 09005KT 10SM CLR 14/06 A3029 RMK AO2 SLP255 T01440061
KBFL 220554Z AUTO 15006KT 10SM CLR 14/05 A3029 RMK AO2 SLP255 T01440050 10206 20139 53014
KBFL 220454Z 08004KT 10SM CLR 15/05 A3027 RMK AO2 SLP248 T01500050
KBFL 220354Z 05005KT 10SM CLR 15/04 A3026 RMK AO2 SLP243 T01500039
KBFL 220254Z 01004KT 10SM CLR 17/05 A3025 RMK AO2 SLP242 T01670050 53014
KBFL 220154Z 32005KT 8SM CLR 17/05 A3023 RMK AO2 SLP235 T01720050
KBFL 220054Z 34003KT 10SM CLR 19/06 A3022 RMK AO2 SLP229 T01940056
KBFL 212354Z 30006KT 10SM CLR 20/06 A3021 RMK AO2 SLP227 T02000056 10211 20156 53003
KBFL 212254Z 31006KT 10SM CLR 20/06 A3020 RMK AO2 SLP223 T02000061
KBFL 212154Z 00000KT 10SM CLR 19/07 A3020 RMK AO2 SLP223 T01940067
KBFL 212054Z VRB03KT 10SM CLR 19/06 A3020 RMK AO2 SLP223 T01890056 56018
KBFL 211954Z 00000KT 10SM CLR 18/06 A3021 RMK AO2 SLP228 T01780061
KBFL 211854Z 13004KT 10SM CLR 17/07 A3023 RMK AO2 SLP233 T01720067
KBFL 211754Z VRB03KT 10SM CLR 16/07 A3025 RMK AO2 SLP242 T01610067 10161 20094 50010
KBFL 211654Z 14003KT 10SM FEW036 14/07 A3027 RMK AO2 SLP248 T01440067
KBFL 211554Z 14004KT 10SM CLR 13/06 A3025 RMK AO2 SLP242 T01330061
KBFL 211454Z 00000KT 10SM CLR 11/06 A3022 RMK AO2 SLP232 T01110056 53014
KBFL 211354Z 00000KT 10SM BKN035 11/06 A3019 RMK AO2 SLP223 T01060056
KBFL 211254Z 00000KT 10SM BKN034 11/06 A3019 RMK AO2 SLP220 T01060056